This is the latest recevied weather packets stored in our database for station/object LU1HKO-13. If no packets are shown the sender has not sent any weather packets the latest 10 day(s).
| Time | Temp. | Humidity | Pressure | Rain* | Wind** | Luminosity | Snow |
|---|---|---|---|---|---|---|---|
| 1777483251 | 29.44° C | 20% | 1017.1 hPa | 0 mm | - | - | - |
| 1777481474 | 29.44° C | 21% | 1017.1 hPa | 0 mm | - | - | - |
| 1777476026 | 26.67° C | 29% | 1017.3 hPa | 0 mm | - | - | - |
| 1777472596 | 23.33° C | 34% | 1017.2 hPa | 0 mm | - | - | - |
| 1777469470 | 20° C | 52% | 1018.3 hPa | 0 mm | - | - | - |
| 1777465826 | 14.44° C | 67% | 1018 hPa | 0 mm | - | - | - |
| 1777459872 | 8.89° C | 85% | 1015.2 hPa | 0 mm | - | - | - |
| 1777455640 | 8.89° C | 83% | 1013.1 hPa | 0 mm | - | - | - |
| 1777447864 | 8.89° C | 84% | 1011.7 hPa | 0 mm | - | - | - |
| 1777444260 | 9.44° C | 81% | 1011 hPa | 0 mm | - | - | - |
| 1777443653 | 9.44° C | 81% | 1011 hPa | 0 mm | - | - | - |
| 1777440068 | 10.56° C | 79% | 1011.4 hPa | 0 mm | - | - | - |
| 1777438873 | 10.56° C | 79% | 1011.7 hPa | 0 mm | - | - | - |
| 1777438246 | 10.56° C | 79% | 1012 hPa | 0 mm | - | - | - |
| 1777431624 | 11.11° C | 72% | 1013.5 hPa | 0 mm | - | - | - |
| 1777428040 | - | - | 1013.7 hPa | 0 mm | - | - | - |
| 1777426218 | 12.78° C | 64% | 1013.9 hPa | 0 mm | - | - | - |
| 1777422026 | 14.44° C | 60% | 1014.3 hPa | 0 mm | - | - | - |
| 1777420871 | 15° C | 58% | 1014.5 hPa | 0 mm | - | - | - |
| 1777419656 | 15.56° C | 56% | 1014.6 hPa | 0 mm | - | - | - |
| 1777417834 | 16.11° C | 53% | 1015 hPa | 0 mm | - | - | - |
| 1777413034 | 18.33° C | 49% | 1014.9 hPa | 0 mm | - | - | - |
| 1777411272 | 20.56° C | 43% | 1015.1 hPa | 0 mm | - | - | - |
| 1777410665 | 21.11° C | 42% | 1014.9 hPa | 0 mm | - | - | - |
| 1777407020 | - | - | 1015.8 hPa | 0 mm | - | - | - |
* Rain latest hour (hover to see other rain measurements)
** Current wind speed in m/s (hover to see current wind gust speed)